createdAt,value
2023-02-06T00:00:50.670Z,17.20
2023-02-06T00:03:19.590Z,16.50
2023-02-06T00:05:56.324Z,17.00
2023-02-06T00:08:22.928Z,16.80
2023-02-06T00:10:51.848Z,13.80
2023-02-06T00:13:22.145Z,14.50
2023-02-06T00:15:48.944Z,14.10
2023-02-06T00:18:24.938Z,16.20
2023-02-06T00:20:51.747Z,16.30
2023-02-06T00:23:18.350Z,18.30
2023-02-06T00:25:45.269Z,15.60
2023-02-06T00:28:11.937Z,15.20
2023-02-06T00:30:44.869Z,16.50
2023-02-06T00:33:13.792Z,17.00
2023-02-06T00:35:40.827Z,18.00
2023-02-06T00:38:09.639Z,16.40
2023-02-06T00:40:37.543Z,16.50
2023-02-06T00:43:04.662Z,17.70
2023-02-06T00:45:34.212Z,16.60
2023-02-06T00:48:02.831Z,19.70
2023-02-06T00:50:29.862Z,16.20
2023-02-06T00:52:56.476Z,20.10
2023-02-06T00:55:23.068Z,15.00
2023-02-06T00:57:49.928Z,18.30
2023-02-06T01:00:16.951Z,15.20
2023-02-06T01:02:45.267Z,15.50
2023-02-06T01:05:11.895Z,14.90
2023-02-06T01:07:41.058Z,14.50
2023-02-06T01:10:09.787Z,17.30
2023-02-06T01:12:38.620Z,16.60
2023-02-06T01:15:08.217Z,13.50
2023-02-06T01:17:41.401Z,15.90
2023-02-06T01:20:09.856Z,13.40
2023-02-06T01:22:36.950Z,17.30
2023-02-06T01:25:05.508Z,14.10
2023-02-06T01:27:37.644Z,15.50
2023-02-06T01:30:05.881Z,16.30
2023-02-06T01:32:35.934Z,18.50
2023-02-06T01:35:02.535Z,16.60
2023-02-06T01:37:29.709Z,15.80
2023-02-06T01:39:56.605Z,15.40
2023-02-06T01:42:23.492Z,15.90
2023-02-06T01:45:10.061Z,14.30
2023-02-06T01:47:37.129Z,18.10
2023-02-06T01:50:04.042Z,13.30
2023-02-06T01:52:31.369Z,15.70
2023-02-06T01:54:58.872Z,14.90
2023-02-06T01:57:25.840Z,15.30
2023-02-06T01:59:56.588Z,14.60
2023-02-06T02:02:23.310Z,15.10
2023-02-06T02:04:50.068Z,15.60
2023-02-06T02:07:18.470Z,15.50
2023-02-06T02:09:44.987Z,15.30
2023-02-06T02:12:13.587Z,17.70
2023-02-06T02:14:47.496Z,16.00
2023-02-06T02:17:38.514Z,14.70
2023-02-06T02:20:11.269Z,16.60
2023-02-06T02:23:05.513Z,13.30
2023-02-06T02:25:53.681Z,15.10
2023-02-06T02:28:26.510Z,17.60
2023-02-06T02:31:14.471Z,14.60
2023-02-06T02:34:03.574Z,16.70
2023-02-06T02:36:42.403Z,15.90
2023-02-06T02:39:12.580Z,18.20
2023-02-06T02:41:52.905Z,14.20
2023-02-06T02:44:19.453Z,18.00
2023-02-06T02:46:48.563Z,13.80
2023-02-06T02:49:17.704Z,15.10
2023-02-06T02:51:44.913Z,15.90
2023-02-06T02:54:11.447Z,16.00
2023-02-06T02:56:40.710Z,18.10
2023-02-06T02:59:08.912Z,14.80
2023-02-06T03:01:40.474Z,15.00
2023-02-06T03:04:11.257Z,17.50
2023-02-06T03:06:55.813Z,15.20
2023-02-06T03:09:37.827Z,13.90
2023-02-06T03:12:21.446Z,13.70
2023-02-06T03:14:55.005Z,14.10
2023-02-06T03:17:34.655Z,11.40
2023-02-06T03:20:03.624Z,15.30
2023-02-06T03:22:30.672Z,15.10
2023-02-06T03:24:57.388Z,15.10
2023-02-06T03:27:25.837Z,13.50
2023-02-06T03:29:52.741Z,15.90
2023-02-06T03:32:27.128Z,14.40
2023-02-06T03:35:04.719Z,13.80
2023-02-06T03:37:31.736Z,14.00
2023-02-06T03:40:18.286Z,15.00
2023-02-06T03:42:49.015Z,14.70
2023-02-06T03:45:25.948Z,18.50
2023-02-06T03:47:53.406Z,19.40
2023-02-06T03:50:20.304Z,16.80
2023-02-06T03:52:48.218Z,16.90
2023-02-06T03:55:18.120Z,16.50
2023-02-06T03:57:46.368Z,15.90
2023-02-06T04:00:13.682Z,16.70
2023-02-06T04:02:40.495Z,17.90
2023-02-06T04:05:07.684Z,16.80
2023-02-06T04:07:35.761Z,18.50
2023-02-06T04:10:02.502Z,16.70
2023-02-06T04:12:29.331Z,18.10
2023-02-06T04:14:56.353Z,23.20
2023-02-06T04:17:40.655Z,19.10
2023-02-06T04:20:08.517Z,22.60
2023-02-06T04:22:35.556Z,21.60
2023-02-06T04:25:03.226Z,22.10
2023-02-06T04:27:30.568Z,17.20
2023-02-06T04:29:57.108Z,19.10
2023-02-06T04:32:24.557Z,19.40
2023-02-06T04:34:51.157Z,16.20
2023-02-06T04:37:18.882Z,18.30
2023-02-06T04:39:46.949Z,19.00
2023-02-06T04:42:13.531Z,16.00
2023-02-06T04:44:40.388Z,16.50
2023-02-06T04:47:08.709Z,17.70
2023-02-06T04:49:35.313Z,20.10
2023-02-06T04:52:01.872Z,19.80
2023-02-06T04:54:28.596Z,23.90
2023-02-06T04:56:55.488Z,18.40
2023-02-06T04:59:22.346Z,17.80
2023-02-06T05:01:49.754Z,17.40
2023-02-06T05:04:16.630Z,17.50
2023-02-06T05:06:46.304Z,20.60
2023-02-06T05:09:13.059Z,18.70
2023-02-06T05:11:40.133Z,22.40
2023-02-06T05:14:06.741Z,16.40
2023-02-06T05:16:40.134Z,20.80
2023-02-06T05:19:06.945Z,21.30
2023-02-06T05:21:33.631Z,20.80
2023-02-06T05:24:00.652Z,29.50
2023-02-06T05:26:27.415Z,23.20
2023-02-06T05:28:53.956Z,17.60
2023-02-06T05:31:24.835Z,16.00
2023-02-06T05:33:52.448Z,16.70
2023-02-06T05:36:19.510Z,15.90
2023-02-06T05:38:46.883Z,15.40
2023-02-06T05:41:17.191Z,15.40
2023-02-06T05:43:44.122Z,19.90
2023-02-06T05:46:12.230Z,16.40
2023-02-06T05:48:39.494Z,18.60
2023-02-06T05:51:08.047Z,14.20
2023-02-06T05:53:34.656Z,14.50
2023-02-06T05:56:01.427Z,16.60
2023-02-06T05:58:28.892Z,14.70
2023-02-06T06:00:56.718Z,16.90
2023-02-06T06:03:25.772Z,16.40
2023-02-06T06:05:52.800Z,47.70
2023-02-06T06:08:22.608Z,30.40
2023-02-06T06:10:50.723Z,36.00
2023-02-06T06:13:19.168Z,22.70
2023-02-06T06:15:50.935Z,30.20
2023-02-06T06:18:20.653Z,22.30
2023-02-06T06:20:47.614Z,32.90
2023-02-06T06:23:15.396Z,26.80
2023-02-06T06:25:42.623Z,32.40
2023-02-06T06:28:10.048Z,22.70
2023-02-06T06:30:37.128Z,21.70
2023-02-06T06:33:04.391Z,27.00
2023-02-06T06:35:33.869Z,21.60
2023-02-06T06:38:00.838Z,20.30
2023-02-06T06:40:28.107Z,19.50
2023-02-06T06:42:55.748Z,19.40
2023-02-06T06:45:22.636Z,22.10
2023-02-06T06:47:51.655Z,19.30
2023-02-06T06:50:18.849Z,23.20
2023-02-06T06:52:48.350Z,21.80
2023-02-06T06:55:18.362Z,17.10
2023-02-06T06:57:49.294Z,19.90
2023-02-06T07:00:16.189Z,17.90
2023-02-06T07:02:43.377Z,19.20
2023-02-06T07:05:10.638Z,57.10
2023-02-06T07:07:42.185Z,87.90
2023-02-06T07:10:09.272Z,33.60
2023-02-06T07:12:40.071Z,22.00
2023-02-06T07:15:09.021Z,20.10
2023-02-06T07:17:36.738Z,20.80
2023-02-06T07:20:04.927Z,20.10
2023-02-06T07:22:40.504Z,17.20
2023-02-06T07:25:08.404Z,19.50
2023-02-06T07:27:35.100Z,17.70
2023-02-06T07:30:03.997Z,18.70
2023-02-06T07:32:36.276Z,20.40
2023-02-06T07:35:06.937Z,15.40
2023-02-06T07:37:35.701Z,16.50
2023-02-06T07:40:07.066Z,17.90
2023-02-06T07:42:34.828Z,15.60
2023-02-06T07:45:09.374Z,19.40
2023-02-06T07:47:36.089Z,22.50
2023-02-06T07:52:38.513Z,14.20
2023-02-06T07:55:05.917Z,18.80
2023-02-06T07:57:32.779Z,18.60
2023-02-06T08:00:06.592Z,19.40
2023-02-06T08:02:42.915Z,18.10
2023-02-06T08:06:26.423Z,17.50
2023-02-06T08:08:57.251Z,18.70
2023-02-06T08:11:31.087Z,17.20
2023-02-06T08:14:13.794Z,16.30
2023-02-06T08:16:51.745Z,16.20
2023-02-06T08:19:27.561Z,18.70
2023-02-06T08:21:58.659Z,15.60
2023-02-06T08:24:29.932Z,16.30
2023-02-06T08:26:58.120Z,15.60
2023-02-06T08:29:29.879Z,14.60
2023-02-06T08:31:58.158Z,17.40
2023-02-06T08:34:27.211Z,14.80
2023-02-06T08:37:04.571Z,14.80
2023-02-06T08:39:46.856Z,12.00
2023-02-06T08:45:10.301Z,12.40
2023-02-06T08:47:38.686Z,12.90
2023-02-06T08:50:06.830Z,19.90
2023-02-06T08:52:35.050Z,16.20
2023-02-06T08:55:03.593Z,14.80
2023-02-06T08:57:32.171Z,14.20
2023-02-06T09:00:00.280Z,16.90
2023-02-06T09:02:28.238Z,14.80
2023-02-06T09:04:56.426Z,18.70
2023-02-06T09:07:24.787Z,14.00
2023-02-06T09:09:52.829Z,12.20
2023-02-06T09:12:21.708Z,14.00
2023-02-06T09:14:49.948Z,14.50
2023-02-06T09:17:19.159Z,15.80
2023-02-06T09:19:50.447Z,16.10
2023-02-06T09:22:20.042Z,15.20
2023-02-06T09:24:51.150Z,13.80
2023-02-06T09:27:36.851Z,26.60
2023-02-06T09:30:06.354Z,31.30
2023-02-06T09:32:36.215Z,31.80
2023-02-06T09:35:09.752Z,19.00
2023-02-06T09:37:39.365Z,16.10
2023-02-06T09:40:09.589Z,14.90
2023-02-06T09:42:39.286Z,12.30
2023-02-06T09:45:12.003Z,15.50
2023-02-06T09:47:45.189Z,16.00
2023-02-06T09:50:44.617Z,13.90
2023-02-06T09:53:22.516Z,16.50
2023-02-06T09:55:55.578Z,15.10
2023-02-06T09:58:29.955Z,18.50
2023-02-06T10:04:10.162Z,13.50
2023-02-06T10:07:23.329Z,18.60
2023-02-06T10:09:59.261Z,16.40
2023-02-06T10:12:39.168Z,15.60
2023-02-06T10:45:31.524Z,11.50
2023-02-06T10:48:08.104Z,12.50
2023-02-06T10:50:52.570Z,11.00
2023-02-06T10:53:42.652Z,13.60
2023-02-06T10:56:15.632Z,9.60
2023-02-06T10:58:57.490Z,10.80
2023-02-06T11:01:27.129Z,12.70
2023-02-06T11:05:09.201Z,12.70
2023-02-06T11:10:51.438Z,10.90
2023-02-06T11:13:34.546Z,10.20
2023-02-06T11:16:05.152Z,12.40
2023-02-06T11:18:40.000Z,11.00
2023-02-06T11:21:10.694Z,11.90
2023-02-06T11:23:39.067Z,10.40
2023-02-06T11:26:18.611Z,9.20
2023-02-06T11:28:58.549Z,10.40
2023-02-06T11:31:51.429Z,12.50
2023-02-06T11:34:33.544Z,10.40
2023-02-06T11:37:34.754Z,9.10
2023-02-06T11:40:26.571Z,12.00
2023-02-06T11:43:13.998Z,8.80
2023-02-06T11:45:47.245Z,11.10
2023-02-06T11:48:58.935Z,10.40
2023-02-06T12:05:40.791Z,14.90
2023-02-06T12:08:14.610Z,10.20
2023-02-06T12:10:53.104Z,8.50
2023-02-06T12:13:25.037Z,10.30
2023-02-06T12:15:57.909Z,7.00
2023-02-06T12:18:48.657Z,12.40
2023-02-06T12:21:24.840Z,11.00
2023-02-06T12:24:03.154Z,14.20
2023-02-06T12:26:32.943Z,9.30
2023-02-06T12:29:10.093Z,10.80
2023-02-06T12:31:53.855Z,12.70
2023-02-06T12:34:25.628Z,10.00
2023-02-06T12:37:15.624Z,7.80
2023-02-06T12:39:43.816Z,9.20
2023-02-06T12:42:41.812Z,8.20
2023-02-06T12:45:27.750Z,8.10
2023-02-06T12:47:59.461Z,9.20
2023-02-06T12:50:44.042Z,10.10
2023-02-06T12:53:33.386Z,10.90
2023-02-06T12:56:11.161Z,10.70
2023-02-06T12:58:54.314Z,14.40
2023-02-06T13:01:34.630Z,11.70
2023-02-06T13:04:22.439Z,17.20
2023-02-06T13:07:06.631Z,12.90
2023-02-06T13:09:41.836Z,15.10
2023-02-06T13:12:16.860Z,11.20
2023-02-06T13:14:53.005Z,11.20
2023-02-06T13:17:27.706Z,12.30
2023-02-06T13:20:07.387Z,10.60
2023-02-06T13:23:14.661Z,11.50
2023-02-06T13:25:50.499Z,12.00
2023-02-06T13:28:23.167Z,11.50
2023-02-06T13:31:09.877Z,12.30
2023-02-06T13:33:47.201Z,10.10
2023-02-06T13:36:18.939Z,12.40
2023-02-06T13:39:01.320Z,15.20
2023-02-06T13:41:45.411Z,14.10
2023-02-06T13:44:23.253Z,14.40
2023-02-06T13:46:56.500Z,17.60
2023-02-06T13:49:54.060Z,15.10
2023-02-06T13:52:36.258Z,14.90
2023-02-06T13:55:38.139Z,12.80
2023-02-06T13:58:39.331Z,20.40
2023-02-06T14:01:20.376Z,15.10
2023-02-06T14:03:57.434Z,13.20
2023-02-06T14:07:00.401Z,10.00
2023-02-06T14:10:05.260Z,14.70
2023-02-06T14:12:53.180Z,14.60
2023-02-06T14:15:50.262Z,13.60
2023-02-06T14:18:24.247Z,13.00
2023-02-06T14:20:55.401Z,15.50
2023-02-06T14:23:45.678Z,16.20
2023-02-06T14:26:47.896Z,16.70
2023-02-06T14:29:36.241Z,17.20
2023-02-06T14:32:34.359Z,14.50
2023-02-06T14:35:12.209Z,12.20
2023-02-06T14:37:54.643Z,18.90
2023-02-06T14:40:31.220Z,14.90
2023-02-06T14:43:05.291Z,13.00
2023-02-06T14:45:41.992Z,14.70
2023-02-06T14:48:20.992Z,12.60
2023-02-06T14:50:51.152Z,11.50
2023-02-06T14:53:32.543Z,14.30
2023-02-06T14:56:13.380Z,13.50
2023-02-06T14:58:46.124Z,10.70
2023-02-06T15:01:19.133Z,13.80
2023-02-06T15:03:52.697Z,14.20
2023-02-06T15:06:38.426Z,14.30
2023-02-06T15:09:06.957Z,18.10
2023-02-06T15:11:35.097Z,18.30
2023-02-06T15:14:05.529Z,16.10
2023-02-06T15:16:49.763Z,12.80
2023-02-06T15:19:21.500Z,14.10
2023-02-06T15:21:49.814Z,8.90
2023-02-06T15:24:29.813Z,10.40
2023-02-06T15:27:03.324Z,11.20
2023-02-06T15:29:31.480Z,10.80
2023-02-06T15:32:08.945Z,9.40
2023-02-06T15:34:37.288Z,11.60
2023-02-06T15:37:26.575Z,8.50
2023-02-06T15:39:54.540Z,11.40
2023-02-06T15:42:22.812Z,8.90
2023-02-06T15:44:50.766Z,11.40
2023-02-06T15:47:19.317Z,12.60
2023-02-06T15:49:51.393Z,11.40
2023-02-06T15:52:42.866Z,8.80
2023-02-06T15:55:36.147Z,8.90
2023-02-06T15:58:04.807Z,10.90
2023-02-06T16:00:35.728Z,9.50
2023-02-06T16:03:06.451Z,11.90
2023-02-06T16:05:36.392Z,13.60
2023-02-06T16:08:04.504Z,18.70
2023-02-06T16:10:37.149Z,12.80
2023-02-06T16:13:10.580Z,9.20
2023-02-06T16:15:39.787Z,10.10
2023-02-06T16:18:19.892Z,11.40
2023-02-06T16:20:47.918Z,10.20
2023-02-06T16:23:29.776Z,10.40
2023-02-06T16:26:07.442Z,12.80
2023-02-06T16:28:49.725Z,12.20
2023-02-06T16:31:17.962Z,10.70
2023-02-06T16:33:48.360Z,12.50
2023-02-06T16:36:17.609Z,15.60
2023-02-06T16:38:57.592Z,13.80
2023-02-06T16:41:35.402Z,9.90
2023-02-06T16:44:04.854Z,15.30
2023-02-06T16:46:34.320Z,13.40
2023-02-06T16:49:02.452Z,12.40
2023-02-06T16:51:31.957Z,13.30
2023-02-06T16:53:59.906Z,12.60
2023-02-06T16:56:28.448Z,11.50
2023-02-06T16:58:57.267Z,13.30
2023-02-06T17:01:26.573Z,11.40
2023-02-06T17:03:54.560Z,10.70
2023-02-06T17:06:27.137Z,13.90
2023-02-06T17:09:02.089Z,11.50
2023-02-06T17:11:31.315Z,10.30
2023-02-06T17:13:59.336Z,10.90
2023-02-06T17:16:28.189Z,10.00
2023-02-06T17:18:56.257Z,11.60
2023-02-06T17:21:25.033Z,12.20
2023-02-06T17:23:53.525Z,12.20
2023-02-06T17:26:22.556Z,11.40
2023-02-06T17:28:51.112Z,14.70
2023-02-06T17:31:19.674Z,16.50
2023-02-06T17:33:48.241Z,13.60
2023-02-06T17:36:21.983Z,13.10
2023-02-06T17:38:50.026Z,12.70
2023-02-06T17:41:18.113Z,12.10
2023-02-06T17:43:46.198Z,12.60
2023-02-06T17:46:14.293Z,10.20
2023-02-06T17:48:44.574Z,13.10
2023-02-06T17:51:12.793Z,14.40
2023-02-06T17:53:40.764Z,15.40
2023-02-06T17:56:12.670Z,15.20
2023-02-06T17:58:40.898Z,15.40
2023-02-06T18:01:13.245Z,14.00
2023-02-06T18:03:41.383Z,15.10
2023-02-06T18:06:09.809Z,11.00
2023-02-06T18:08:38.077Z,12.70
2023-02-06T18:11:18.357Z,14.60
2023-02-06T18:13:47.625Z,13.70
2023-02-06T18:16:18.570Z,12.30
2023-02-06T18:18:46.920Z,9.10
2023-02-06T18:21:16.164Z,10.20
2023-02-06T18:23:44.215Z,9.30
2023-02-06T18:26:12.189Z,9.10
2023-02-06T18:28:40.306Z,9.90
2023-02-06T18:31:22.759Z,11.90
2023-02-06T18:33:50.821Z,10.10
2023-02-06T18:36:19.206Z,8.30
2023-02-06T18:38:47.218Z,10.80
2023-02-06T18:41:35.649Z,10.60
2023-02-06T18:44:05.309Z,10.40
2023-02-06T18:46:34.074Z,9.30
2023-02-06T18:49:02.215Z,10.70
2023-02-06T18:51:30.919Z,11.80
2023-02-06T18:53:59.387Z,11.50
2023-02-06T18:56:27.352Z,10.90
2023-02-06T18:58:55.339Z,10.60
2023-02-06T19:01:24.199Z,10.90
2023-02-06T19:03:52.969Z,10.70
2023-02-06T19:06:28.199Z,9.80
2023-02-06T19:08:57.100Z,9.10
2023-02-06T19:11:25.685Z,11.40
2023-02-06T19:13:54.744Z,10.70
2023-02-06T19:16:22.845Z,11.00
2023-02-06T19:18:50.886Z,10.20
2023-02-06T19:21:21.316Z,12.60
2023-02-06T19:24:00.621Z,11.90
2023-02-06T19:26:29.133Z,12.10
2023-02-06T20:54:27.211Z,13.40
2023-02-06T20:56:55.404Z,15.40
2023-02-06T20:59:23.372Z,18.60
2023-02-06T21:01:51.709Z,13.80
2023-02-06T21:04:20.003Z,13.10
2023-02-06T21:06:50.066Z,15.00
2023-02-06T21:09:19.730Z,12.80
2023-02-06T21:11:48.645Z,15.60
2023-02-06T21:14:19.177Z,14.20
2023-02-06T21:16:47.536Z,13.70
2023-02-06T21:19:22.260Z,16.70
2023-02-06T21:21:50.223Z,12.40
2023-02-06T21:24:18.266Z,15.90
2023-02-06T21:26:46.344Z,14.60
2023-02-06T21:29:14.881Z,17.30
2023-02-06T21:31:43.168Z,18.70
2023-02-06T21:34:19.142Z,15.80
2023-02-06T21:36:48.154Z,15.90
2023-02-06T21:39:18.363Z,15.60
2023-02-06T21:41:46.993Z,16.30
2023-02-06T21:44:14.858Z,15.10
2023-02-06T21:46:42.842Z,15.00
2023-02-06T21:49:11.812Z,20.00
2023-02-06T21:51:40.042Z,16.50
2023-02-06T21:54:08.756Z,19.90
2023-02-06T21:56:38.207Z,18.40
2023-02-06T21:59:06.741Z,16.70
2023-02-06T22:01:36.635Z,17.90
2023-02-06T22:04:05.062Z,17.30
2023-02-06T22:06:36.980Z,18.40
2023-02-06T22:09:08.091Z,21.90
2023-02-06T22:11:38.821Z,18.80
2023-02-06T22:14:11.124Z,16.60
2023-02-06T22:16:39.448Z,16.60
2023-02-06T22:19:07.780Z,19.10
2023-02-06T22:21:35.800Z,19.30
2023-02-06T22:24:06.671Z,18.20
2023-02-06T22:26:38.592Z,23.50
2023-02-06T22:29:07.729Z,20.00
2023-02-06T22:31:40.515Z,20.90
2023-02-06T22:34:11.895Z,20.20
2023-02-06T22:36:39.765Z,19.70
2023-02-06T22:39:08.625Z,21.70
2023-02-06T22:41:38.882Z,22.20
2023-02-06T22:44:06.816Z,21.00
2023-02-06T22:46:36.432Z,22.70
2023-02-06T22:49:05.491Z,16.90
2023-02-06T22:51:33.561Z,27.40
2023-02-06T22:54:01.773Z,20.80
2023-02-06T22:56:31.841Z,23.90
2023-02-06T22:59:00.888Z,19.20
2023-02-06T23:01:32.022Z,25.50
2023-02-06T23:04:00.509Z,22.00
2023-02-06T23:06:29.338Z,18.30
2023-02-06T23:08:57.600Z,23.10
2023-02-06T23:11:26.039Z,25.20
2023-02-06T23:13:58.758Z,24.00
2023-02-06T23:16:28.735Z,27.00
2023-02-06T23:18:57.054Z,20.80
2023-02-06T23:21:25.512Z,21.80
2023-02-06T23:23:55.197Z,20.80
2023-02-06T23:26:23.489Z,23.10
2023-02-06T23:28:51.764Z,22.40
2023-02-06T23:31:19.889Z,22.50
2023-02-06T23:33:48.110Z,22.40
2023-02-06T23:36:17.557Z,24.60
2023-02-06T23:38:45.587Z,23.60
2023-02-06T23:41:16.211Z,19.30
2023-02-06T23:43:44.691Z,20.50
2023-02-06T23:46:12.799Z,23.80
2023-02-06T23:48:41.017Z,20.80
2023-02-06T23:51:09.003Z,22.80
2023-02-06T23:53:37.760Z,22.60
2023-02-06T23:56:21.720Z,22.10
2023-02-06T23:58:49.859Z,17.70
